This is the latest recevied weather packets stored in our database for station/object LRCL. If no packets are shown the sender has not sent any weather packets the latest 10 day(s).
| Time | Temp. | Humidity | Pressure | Rain* | Wind** | Luminosity | Snow |
|---|---|---|---|---|---|---|---|
| 1777843089 | 8.89° C | 62% | 1019 hPa | - | - | - | - |
| 1777842188 | 8.89° C | 62% | 1019 hPa | - | - | - | - |
| 1777841295 | 7.78° C | 66% | 1019 hPa | - | - | - | - |
| 1777840463 | 7.78° C | 66% | 1019 hPa | - | - | - | - |
| 1777839488 | 7.78° C | 66% | 1019 hPa | - | - | - | - |
| 1777838597 | 7.78° C | 66% | 1019 hPa | - | - | - | - |
| 1777837713 | 8.89° C | 62% | 1019 hPa | - | - | - | - |
| 1777836863 | 8.89° C | 62% | 1019 hPa | - | - | - | - |
| 1777835889 | 10° C | 58% | 1019 hPa | - | - | - | - |
| 1777834989 | 10° C | 58% | 1019 hPa | - | - | - | - |
| 1777834162 | 8.89° C | 66% | 1019 hPa | - | - | - | - |
| 1777833188 | 8.89° C | 66% | 1019 hPa | - | - | - | - |
| 1777832288 | 12.22° C | 51% | 1018 hPa | - | - | - | - |
| 1777831388 | 12.22° C | 51% | 1018 hPa | - | - | - | - |
| 1777830508 | 15° C | 42% | 1018 hPa | - | - | - | - |
| 1777829613 | 15° C | 42% | 1018 hPa | - | - | - | - |
| 1777828688 | 16.11° C | 36% | 1018 hPa | - | - | - | - |
| 1777827789 | 16.11° C | 36% | 1018 hPa | - | - | - | - |
| 1777826888 | 17.22° C | 37% | 1018 hPa | - | - | - | - |
| 1777825988 | 17.22° C | 37% | 1018 hPa | - | - | - | - |
| 1777825088 | 17.22° C | 32% | 1018 hPa | - | - | - | - |
| 1777824208 | 17.22° C | 32% | 1018 hPa | - | - | - | - |
| 1777823330 | 17.22° C | 34% | 1018 hPa | - | - | - | - |
| 1777822388 | 17.22° C | 34% | 1018 hPa | - | - | - | - |
| 1777821488 | 17.78° C | 30% | 1019 hPa | - | - | - | - |
* Rain since midnight (hover to see other rain measurements)
** Current wind speed in m/s (hover to see current wind gust speed)